Time;durP1;ratioP1;P1;durP2;ratioP2;P2;SDS_P1;SDS_P2;PMS_P1;PMS_P2;Temp;Humidity;BMP_temperature;BMP_pressure;BME280_temperature;BME280_humidity;BME280_pressure;Samples;Min_cycle;Max_cycle;Signal;HPM_P1;HPM_P2
2022/02/09 00:09:23;;;;;;;18.60;17.70;;;8.00;80.60;;;;;;4975886;28;20841;-87
2022/02/09 00:27:46;;;;;;;18.08;17.27;;;7.70;81.00;;;;;;4968819;28;20035;-87
2022/02/09 01:56:30;;;;;;;17.55;16.75;;;7.80;80.40;;;;;;4938697;29;20039;-87
2022/02/09 01:58:57;;;;;;;16.98;16.17;;;7.80;80.40;;;;;;4931625;29;20047;-87
2022/02/09 02:01:23;;;;;;;17.15;16.35;;;7.80;80.40;;;;;;4930378;29;20040;-88
2022/02/09 02:03:49;;;;;;;19.20;18.17;;;7.80;80.60;;;;;;4917761;29;20040;-87
2022/02/09 02:06:17;;;;;;;17.10;16.30;;;7.80;80.60;;;;;;4932323;29;20047;-87
2022/02/09 02:08:44;;;;;;;17.23;16.42;;;7.80;80.50;;;;;;4933842;29;20138;-87
2022/02/09 02:16:48;;;;;;;17.92;17.10;;;7.90;80.30;;;;;;4881144;29;20052;-87
2022/02/09 03:09:12;;;;;;;17.40;16.60;;;7.50;80.60;;;;;;4872485;29;20044;-88
2022/02/09 03:14:19;;;;;;;16.80;16.00;;;7.40;80.60;;;;;;4870783;29;20052;-88
2022/02/09 03:17:08;;;;;;;17.63;16.77;;;7.40;80.70;;;;;;4872614;29;20045;-87
2022/02/09 03:19:51;;;;;;;17.43;16.63;;;7.40;80.70;;;;;;4874216;29;20037;-88
2022/02/09 03:59:14;;;;;;;17.10;16.30;;;7.20;80.80;;;;;;4973205;28;20062;-86
2022/02/09 04:01:42;;;;;;;16.90;16.10;;;7.10;80.70;;;;;;4965339;28;20375;-87
2022/02/09 04:04:08;;;;;;;17.47;16.67;;;7.10;80.80;;;;;;4960473;28;20047;-87
2022/02/09 04:06:36;;;;;;;17.53;16.63;;;7.10;80.90;;;;;;4958134;28;20043;-87
2022/02/09 04:09:05;;;;;;;17.33;16.43;;;7.00;80.80;;;;;;4969918;28;20035;-87
2022/02/09 04:11:54;;;;;;;16.70;15.90;;;7.10;80.90;;;;;;4960302;28;20043;-87
2022/02/09 04:17:11;;;;;;;16.73;15.93;;;7.10;80.70;;;;;;4965642;28;20038;-87
2022/02/09 04:19:51;;;;;;;15.97;15.23;;;7.10;80.80;;;;;;4972132;28;20382;-87
2022/02/09 04:23:02;;;;;;;17.10;16.30;;;7.00;80.80;;;;;;4972683;28;20425;-87
2022/02/09 04:46:25;;;;;;;17.67;16.88;;;7.00;80.90;;;;;;4967902;28;20046;-87
2022/02/09 04:56:51;;;;;;;16.37;15.67;;;6.80;80.70;;;;;;4967136;28;20035;-92
2022/02/09 04:59:35;;;;;;;17.80;16.90;;;6.80;80.90;;;;;;4960806;28;20027;-84
2022/02/09 05:04:52;;;;;;;17.23;16.42;;;6.70;81.10;;;;;;4969072;28;20031;-81
2022/02/09 05:21:33;;;;;;;15.93;15.20;;;6.40;81.70;;;;;;4975332;28;20042;-83
2022/02/09 05:28:43;;;;;;;16.00;15.30;;;6.40;81.60;;;;;;4971241;28;20042;-83
2022/02/09 05:31:10;;;;;;;16.00;15.30;;;6.40;81.50;;;;;;4974425;28;20042;-84
2022/02/09 05:33:36;;;;;;;16.27;15.50;;;6.50;81.50;;;;;;4974587;28;20067;-84
2022/02/09 05:36:03;;;;;;;16.80;15.90;;;6.40;81.50;;;;;;4956309;28;20039;-82
2022/02/09 05:38:29;;;;;;;16.10;15.40;;;6.40;81.60;;;;;;4974260;28;20042;-83
2022/02/09 05:40:56;;;;;;;16.67;15.87;;;6.40;81.60;;;;;;4972787;28;20039;-84
2022/02/09 05:43:26;;;;;;;16.47;15.57;;;6.40;81.60;;;;;;4974853;28;20038;-85
2022/02/09 06:01:33;;;;;;;16.80;16.00;;;6.50;81.70;;;;;;4937123;28;20078;-83
2022/02/09 06:03:59;;;;;;;15.77;15.07;;;6.50;81.60;;;;;;4933095;29;20043;-83
2022/02/09 06:06:25;;;;;;;15.97;15.27;;;6.50;81.50;;;;;;4953087;28;20034;-83
2022/02/09 06:08:51;;;;;;;16.83;16.03;;;6.50;81.40;;;;;;4951345;28;20047;-85
2022/02/09 06:22:00;;;;;;;15.83;15.13;;;6.40;81.60;;;;;;4937514;28;20042;-85
2022/02/09 06:24:26;;;;;;;16.23;15.43;;;6.40;81.60;;;;;;4940319;28;20031;-83
2022/02/09 06:26:52;;;;;;;15.20;14.50;;;6.40;81.60;;;;;;4949317;28;20178;-84
2022/02/09 06:29:18;;;;;;;16.53;15.77;;;6.30;81.60;;;;;;4939232;28;20038;-84
2022/02/09 06:31:46;;;;;;;15.60;14.83;;;6.30;81.60;;;;;;4947818;28;20043;-87
2022/02/09 06:34:14;;;;;;;16.93;16.00;;;6.30;81.80;;;;;;4965666;28;20043;-85
2022/02/09 06:36:44;;;;;;;17.80;16.53;;;6.30;81.80;;;;;;4965532;28;20046;-86
2022/02/09 06:39:12;;;;;;;16.42;15.65;;;6.30;81.70;;;;;;4973626;28;20117;-86
2022/02/09 06:41:40;;;;;;;17.07;16.27;;;6.30;81.70;;;;;;4973613;28;20502;-86
2022/02/09 06:44:07;;;;;;;16.70;15.80;;;6.30;81.60;;;;;;4971559;28;20386;-86
2022/02/09 06:46:35;;;;;;;16.30;15.60;;;6.30;81.70;;;;;;4970075;28;20498;-85
2022/02/09 06:49:07;;;;;;;15.97;15.27;;;6.30;81.70;;;;;;4964050;28;20397;-86
2022/02/09 06:51:37;;;;;;;16.00;15.30;;;6.20;81.70;;;;;;4971797;28;20051;-85
2022/02/09 06:55:06;;;;;;;16.00;15.30;;;6.20;81.60;;;;;;4972120;28;20058;-86
2022/02/09 06:57:11;;;;;;;16.70;15.90;;;6.10;81.60;;;;;;4965601;28;20035;-85
2022/02/09 06:59:41;;;;;;;15.67;14.97;;;6.10;81.80;;;;;;4972485;28;20497;-85
2022/02/09 07:02:07;;;;;;;17.17;16.37;;;6.00;81.90;;;;;;4971180;28;20413;-86
2022/02/09 07:04:35;;;;;;;15.87;15.17;;;6.00;81.90;;;;;;4986990;28;20039;-86
2022/02/09 07:07:01;;;;;;;15.87;15.07;;;6.00;81.90;;;;;;4972973;28;20425;-86
2022/02/09 07:09:28;;;;;;;16.60;15.80;;;6.00;81.80;;;;;;4988290;28;20043;-85
2022/02/09 07:11:55;;;;;;;16.10;15.40;;;6.00;81.70;;;;;;4971359;28;20031;-86
2022/02/09 07:14:24;;;;;;;16.37;15.60;;;6.00;81.80;;;;;;4972795;28;20034;-87
2022/02/09 07:16:51;;;;;;;15.97;15.20;;;5.90;81.70;;;;;;4961531;28;20410;-85
2022/02/09 07:19:17;;;;;;;16.57;15.77;;;5.90;81.90;;;;;;4967001;28;20031;-85
2022/02/09 07:21:44;;;;;;;15.90;15.20;;;5.90;81.90;;;;;;4971265;28;20043;-86
2022/02/09 07:24:16;;;;;;;16.60;15.80;;;5.90;81.90;;;;;;4971727;28;20039;-85
2022/02/09 07:29:15;;;;;;;15.57;14.87;;;6.00;81.90;;;;;;4981083;28;20062;-85
2022/02/09 07:31:43;;;;;;;16.60;15.80;;;5.90;81.70;;;;;;4971050;28;20050;-83
2022/02/09 07:34:09;;;;;;;15.60;14.90;;;5.90;81.90;;;;;;4985438;28;20023;-84
2022/02/09 07:36:37;;;;;;;16.50;15.60;;;5.90;81.90;;;;;;4980760;28;20042;-85
2022/02/09 07:39:06;;;;;;;15.47;14.77;;;5.80;81.90;;;;;;4971592;28;20054;-85
2022/02/09 07:41:34;;;;;;;15.67;14.97;;;5.80;82.10;;;;;;4973375;28;20543;-87
2022/02/09 07:52:01;;;;;;;17.53;16.53;;;5.70;82.10;;;;;;4987202;28;20042;-88
2022/02/09 07:54:27;;;;;;;17.00;16.20;;;5.70;82.20;;;;;;4972432;28;20045;-88
2022/02/09 07:56:53;;;;;;;16.00;15.30;;;5.70;82.10;;;;;;4974253;28;20046;-84
2022/02/09 07:59:19;;;;;;;17.00;16.20;;;5.70;82.20;;;;;;4966354;28;20042;-84
2022/02/09 08:01:46;;;;;;;16.47;15.50;;;5.70;82.20;;;;;;4971152;28;20046;-86
2022/02/09 08:04:12;;;;;;;16.00;15.30;;;5.70;82.20;;;;;;4969395;28;20113;-84
2022/02/09 08:06:38;;;;;;;16.07;15.33;;;5.70;82.20;;;;;;4962588;28;20043;-86
2022/02/09 08:09:11;;;;;;;16.07;15.37;;;5.60;82.20;;;;;;4976078;28;20042;-86
2022/02/09 08:11:48;;;;;;;16.40;15.60;;;5.60;82.30;;;;;;4972026;28;20059;-85
2022/02/09 08:33:05;;;;;;;15.90;15.10;;;5.60;82.10;;;;;;4971885;28;20047;-82
2022/02/09 08:35:32;;;;;;;15.70;15.00;;;5.60;82.00;;;;;;4967641;28;20046;-85
2022/02/09 08:37:59;;;;;;;16.23;15.43;;;5.60;82.00;;;;;;4968449;28;20042;-90
2022/02/09 08:40:26;;;;;;;16.27;15.47;;;5.60;82.00;;;;;;4980110;28;20043;-87
2022/02/09 08:42:53;;;;;;;16.50;15.70;;;5.60;82.00;;;;;;4968392;28;20043;-88
2022/02/09 08:45:19;;;;;;;15.77;15.07;;;5.60;82.00;;;;;;4964239;28;20039;-89
2022/02/09 08:47:47;;;;;;;17.37;16.33;;;5.60;82.00;;;;;;4972210;28;20054;-89
2022/02/09 08:50:14;;;;;;;16.93;16.13;;;5.60;82.00;;;;;;4968264;28;20596;-89
2022/02/09 08:52:40;;;;;;;16.60;15.80;;;5.70;82.10;;;;;;4970953;28;20508;-87
2022/02/09 08:55:07;;;;;;;16.70;15.90;;;5.80;82.00;;;;;;4966392;28;20047;-90
2022/02/09 08:57:34;;;;;;;16.07;15.37;;;5.80;81.80;;;;;;4972314;28;20115;-90
2022/02/09 09:00:10;;;;;;;15.90;15.20;;;5.80;81.80;;;;;;4970001;28;20031;-89
2022/02/09 09:02:38;;;;;;;16.33;15.53;;;5.90;81.70;;;;;;4976816;28;20417;-90
2022/02/09 09:05:15;;;;;;;16.40;15.60;;;5.80;81.60;;;;;;4974224;28;20031;-87
2022/02/09 09:07:43;;;;;;;16.30;15.50;;;5.80;81.70;;;;;;4975132;28;20037;-90
2022/02/09 10:05:32;;;;;;;16.67;15.83;;;6.50;81.00;;;;;;4978999;28;20035;-83
2022/02/09 10:33:10;;;;;;;17.17;16.37;;;6.50;81.00;;;;;;4995018;28;20493;-81
2022/02/09 10:35:42;;;;;;;17.40;16.60;;;6.60;80.90;;;;;;4972713;28;20042;-80
2022/02/09 10:38:28;;;;;;;17.60;16.73;;;6.60;80.80;;;;;;4971557;28;20034;-80
2022/02/09 10:41:11;;;;;;;17.63;16.83;;;6.70;80.70;;;;;;4976121;28;20038;-81
2022/02/09 10:43:37;;;;;;;17.63;16.83;;;6.80;80.70;;;;;;4973955;28;20501;-81
2022/02/09 10:46:16;;;;;;;18.43;17.47;;;6.90;80.70;;;;;;4972171;28;20035;-80
2022/02/09 10:48:51;;;;;;;17.10;16.30;;;6.90;80.50;;;;;;4965982;28;20528;-81
2022/02/09 10:51:54;;;;;;;17.80;17.00;;;7.00;80.40;;;;;;4961893;28;20043;-81
2022/02/09 10:54:29;;;;;;;17.17;16.37;;;7.10;80.30;;;;;;4971642;28;20403;-85
2022/02/09 10:56:57;;;;;;;18.30;17.40;;;7.10;80.20;;;;;;4969371;28;20062;-83
2022/02/09 10:59:24;;;;;;;18.17;17.37;;;7.10;80.10;;;;;;4972613;28;20473;-85
2022/02/09 11:01:51;;;;;;;18.30;17.40;;;7.10;80.10;;;;;;4972840;28;20070;-87
2022/02/09 11:04:17;;;;;;;17.73;16.83;;;7.10;80.30;;;;;;4970153;28;20027;-88
2022/02/09 11:06:44;;;;;;;17.70;16.90;;;7.00;80.40;;;;;;4982212;28;20485;-85
2022/02/09 11:09:12;;;;;;;17.33;16.53;;;7.10;80.50;;;;;;4967003;28;20042;-85
2022/02/09 11:11:40;;;;;;;17.37;16.57;;;7.20;80.30;;;;;;4960804;28;20039;-87
2022/02/09 11:14:19;;;;;;;17.57;16.77;;;7.30;80.30;;;;;;4971462;28;20401;-88
2022/02/09 11:16:47;;;;;;;17.83;16.98;;;7.40;80.10;;;;;;4969051;28;20047;-85
2022/02/09 11:19:15;;;;;;;19.30;18.40;;;7.50;79.90;;;;;;4969824;28;20034;-87
2022/02/09 11:21:44;;;;;;;17.50;16.70;;;7.50;79.80;;;;;;4972477;28;20038;-88
2022/02/09 11:24:24;;;;;;;17.47;16.43;;;7.60;79.80;;;;;;4972799;28;20093;-90
2022/02/09 11:27:00;;;;;;;20.00;19.00;;;7.70;79.90;;;;;;4973499;28;20022;-92
2022/02/09 11:32:09;;;;;;;19.10;18.05;;;7.80;79.40;;;;;;4967904;28;20054;-85
2022/02/09 11:34:57;;;;;;;19.10;18.20;;;7.90;79.50;;;;;;4966176;28;20032;-82
2022/02/09 11:37:29;;;;;;;19.27;18.27;;;8.10;79.30;;;;;;4970181;28;20042;-83
2022/02/09 11:39:59;;;;;;;19.02;18.13;;;8.20;79.10;;;;;;4971413;28;20038;-82
2022/02/09 11:45:24;;;;;;;19.63;18.73;;;8.50;78.40;;;;;;4989550;28;20042;-85
2022/02/09 12:09:32;;;;;;;19.10;18.20;;;8.80;78.00;;;;;;4937768;28;20043;-85
2022/02/09 12:12:02;;;;;;;18.98;18.08;;;8.80;78.10;;;;;;4934543;29;20442;-85
2022/02/09 12:25:40;;;;;;;;;;;9.20;77.70;;;;;;4908693;29;20035;-84
2022/02/09 12:28:07;;;;;;;20.15;18.98;;;9.40;77.20;;;;;;4931357;29;19914;-84
2022/02/09 12:30:33;;;;;;;19.20;18.30;;;9.50;76.70;;;;;;4930193;29;20032;-84
2022/02/09 12:32:59;;;;;;;19.27;18.38;;;9.50;76.80;;;;;;4936304;28;20458;-83
2022/02/09 12:35:26;;;;;;;19.10;18.20;;;9.60;76.70;;;;;;4972127;28;20043;-84
2022/02/09 12:37:52;;;;;;;19.60;18.50;;;9.70;76.70;;;;;;4971146;28;20026;-85
2022/02/09 12:40:21;;;;;;;19.02;18.13;;;9.90;76.70;;;;;;4989098;28;20039;-86
2022/02/09 12:42:48;;;;;;;19.52;18.63;;;10.10;76.60;;;;;;4946395;28;20505;-85
2022/02/09 12:45:21;;;;;;;20.80;19.80;;;10.40;76.00;;;;;;4968576;28;20031;-85
2022/02/09 12:47:59;;;;;;;20.55;19.55;;;10.70;75.60;;;;;;4976064;28;20035;-83
2022/02/09 12:50:30;;;;;;;1999.90;999.90;;;11.20;75.10;;;;;;4975962;28;20038;-83
2022/02/09 12:52:56;;;;;;;1999.90;999.90;;;11.60;74.60;;;;;;4970507;28;20042;-83
2022/02/09 12:55:27;;;;;;;1999.90;999.90;;;11.90;74.10;;;;;;4970708;28;20028;-83
2022/02/09 12:57:55;;;;;;;1999.90;999.90;;;12.00;73.60;;;;;;4963099;28;20035;-84
2022/02/09 13:00:33;;;;;;;1999.90;999.90;;;12.20;73.60;;;;;;4973866;28;20057;-84
2022/02/09 13:03:03;;;;;;;1999.90;999.90;;;12.20;73.20;;;;;;4969438;28;20047;-83
2022/02/09 13:05:30;;;;;;;1999.90;999.90;;;12.00;73.50;;;;;;4974098;28;20034;-83
2022/02/09 13:07:58;;;;;;;1999.90;999.90;;;11.80;74.00;;;;;;4975507;28;20038;-83
2022/02/09 13:10:29;;;;;;;1999.90;999.90;;;11.60;74.60;;;;;;4986603;28;20054;-81
2022/02/09 13:12:59;;;;;;;1999.90;999.90;;;11.50;74.90;;;;;;4963957;28;20031;-83
2022/02/09 13:15:30;;;;;;;1999.90;999.90;;;11.40;75.20;;;;;;4965985;28;20042;-84
2022/02/09 13:26:25;;;;;;;1999.90;999.90;;;11.30;75.50;;;;;;4970673;28;20031;-86
2022/02/09 14:59:20;;;;;;;517.40;266.35;;;10.90;76.10;;;;;;4918494;29;20039;-85
2022/02/09 15:01:55;;;;;;;1999.90;999.90;;;10.90;76.10;;;;;;4917182;29;20047;-85
2022/02/09 15:04:32;;;;;;;1999.90;999.90;;;11.00;76.00;;;;;;4914084;29;20059;-84
2022/02/09 15:07:26;;;;;;;1999.90;999.90;;;11.00;76.00;;;;;;4917628;29;20126;-83
2022/02/09 15:10:04;;;;;;;517.17;266.30;;;11.00;75.80;;;;;;4916254;29;20044;-82
2022/02/09 15:13:25;;;;;;;22.60;21.55;;;11.10;75.80;;;;;;4927977;29;20040;-84
2022/02/09 15:16:25;;;;;;;23.05;21.95;;;11.00;75.80;;;;;;4904281;29;20056;-83
2022/02/09 15:23:25;;;;;;;22.70;21.63;;;10.90;76.10;;;;;;4921010;29;20052;-83
2022/02/09 15:25:54;;;;;;;23.80;22.60;;;10.90;76.00;;;;;;4917220;29;20032;-83
2022/02/09 15:28:20;;;;;;;24.75;23.55;;;10.90;76.10;;;;;;4949189;28;20043;-83
2022/02/09 15:30:54;;;;;;;24.88;23.40;;;10.90;76.10;;;;;;4970909;28;20436;-83
2022/02/09 15:33:25;;;;;;;25.13;23.42;;;11.00;76.20;;;;;;4964888;28;20107;-84
2022/02/09 15:35:58;;;;;;;;;;;11.00;76.20;;;;;;4966452;28;20034;-83
2022/02/09 15:38:33;;;;;;;24.00;22.75;;;11.10;76.10;;;;;;4972771;28;19925;-83
2022/02/09 15:41:12;;;;;;;24.35;23.08;;;11.10;76.00;;;;;;4980324;28;20047;-81
2022/02/09 15:44:08;;;;;;;25.20;23.95;;;11.10;75.90;;;;;;4965777;28;20043;-86
2022/02/09 16:05:37;;;;;;;1999.90;999.90;;;11.30;75.90;;;;;;4978087;28;20435;-83
2022/02/09 16:23:57;;;;;;;1999.90;999.90;;;11.40;76.30;;;;;;4937169;28;20504;-86
2022/02/09 16:45:21;;;;;;;27.48;25.50;;;11.20;76.40;;;;;;4933864;29;20478;-84
2022/02/09 16:50:16;;;;;;;25.58;24.27;;;11.20;76.60;;;;;;4963445;28;20031;-84
2022/02/09 16:52:53;;;;;;;24.38;23.13;;;11.20;76.60;;;;;;4971270;28;20039;-84
2022/02/09 17:19:38;;;;;;;24.00;22.80;;;11.10;76.70;;;;;;4967976;28;20026;-88
2022/02/09 17:22:04;;;;;;;21.15;20.15;;;11.10;76.80;;;;;;4985419;28;20038;-90
2022/02/09 17:24:31;;;;;;;23.45;22.25;;;11.00;76.80;;;;;;4972141;28;20039;-87
2022/02/09 17:26:57;;;;;;;23.23;21.92;;;11.00;76.90;;;;;;4972241;28;20034;-87
2022/02/09 17:29:33;;;;;;;23.73;22.52;;;11.00;76.90;;;;;;4969076;28;20513;-87
2022/02/09 17:32:13;;;;;;;22.45;21.42;;;10.90;76.90;;;;;;4973471;28;20034;-86
2022/02/09 17:35:01;;;;;;;24.30;23.10;;;11.00;77.10;;;;;;4973577;28;20041;-85
2022/02/09 17:37:46;;;;;;;24.55;23.35;;;11.00;77.10;;;;;;4971398;28;20111;-88
2022/02/09 17:54:00;;;;;;;23.85;22.25;;;10.90;77.10;;;;;;4973007;28;20065;-90
2022/02/09 17:56:29;;;;;;;20.92;19.92;;;10.90;77.20;;;;;;4969742;28;20023;-92
2022/02/09 17:58:58;;;;;;;20.95;19.75;;;10.90;77.20;;;;;;4975493;28;20050;-93
2022/02/09 18:01:24;;;;;;;21.38;20.27;;;10.90;77.30;;;;;;4968651;28;20039;-91
2022/02/09 18:03:53;;;;;;;22.88;21.67;;;10.90;77.30;;;;;;4973354;28;20047;-91
2022/02/09 18:09:03;;;;;;;19.95;19.02;;;10.90;77.30;;;;;;4972733;28;20035;-84
2022/02/09 18:30:46;;;;;;;23.15;22.02;;;10.80;77.50;;;;;;4970310;28;20038;-85
2022/02/09 18:43:35;;;;;;;21.08;20.08;;;10.80;77.60;;;;;;4972636;28;20108;-87
2022/02/09 18:46:14;;;;;;;23.02;21.88;;;10.80;77.70;;;;;;4963897;28;20043;-84
2022/02/09 18:59:32;;;;;;;21.48;20.30;;;10.70;77.80;;;;;;4977128;28;20042;-91
2022/02/09 19:04:46;;;;;;;23.08;21.65;;;10.70;78.00;;;;;;4972300;28;20050;-86
2022/02/09 19:26:19;;;;;;;19.90;18.90;;;10.10;78.60;;;;;;4980383;28;20035;-87
2022/02/09 19:26:21;;;;;;;20.25;19.25;;;9.80;78.80;;;;;;4971067;28;20037;-84
2022/02/09 19:32:14;;;;;;;20.83;19.60;;;9.60;79.10;;;;;;4973050;28;20046;-88
2022/02/09 19:48:05;;;;;;;19.17;18.27;;;9.50;79.30;;;;;;4961693;28;20031;-86
2022/02/09 19:55:54;;;;;;;19.73;18.77;;;9.60;79.10;;;;;;4973723;28;20039;-86
2022/02/09 19:58:22;;;;;;;20.20;19.30;;;9.60;79.10;;;;;;4970431;28;20031;-88
2022/02/09 20:00:48;;;;;;;20.00;19.10;;;9.60;79.00;;;;;;4959808;28;20042;-89
2022/02/09 20:03:16;;;;;;;20.30;19.30;;;9.60;79.00;;;;;;4960799;28;20042;-89
2022/02/09 20:05:42;;;;;;;20.95;19.85;;;9.60;79.00;;;;;;4972774;28;20027;-86
2022/02/09 20:08:08;;;;;;;20.75;19.75;;;9.70;79.00;;;;;;4971531;28;20035;-87
2022/02/09 20:10:34;;;;;;;21.15;19.95;;;9.70;79.00;;;;;;4968077;28;20519;-87
2022/02/09 20:13:00;;;;;;;20.05;19.08;;;9.70;78.90;;;;;;4961234;28;20042;-89
2022/02/09 20:15:26;;;;;;;20.55;19.20;;;9.70;79.00;;;;;;4966613;28;20034;-85
2022/02/09 20:17:52;;;;;;;19.70;18.80;;;9.70;79.00;;;;;;4961503;28;20026;-87
2022/02/09 20:20:25;;;;;;;20.02;19.02;;;9.70;79.00;;;;;;4961006;28;20050;-87
2022/02/09 20:22:53;;;;;;;21.05;19.95;;;9.70;79.00;;;;;;4969383;28;20397;-88
2022/02/09 20:25:20;;;;;;;19.77;18.88;;;9.70;78.90;;;;;;4971126;28;20062;-84
2022/02/09 20:27:49;;;;;;;20.33;19.25;;;9.70;79.70;;;;;;4953341;28;20047;-84
2022/02/09 20:30:18;;;;;;;20.33;19.33;;;9.70;78.90;;;;;;4969473;28;20059;-83
2022/02/09 20:32:56;;;;;;;20.48;19.48;;;9.70;79.00;;;;;;4968119;28;20027;-84
2022/02/09 20:35:23;;;;;;;19.85;18.95;;;9.70;79.00;;;;;;4966245;28;20049;-84
2022/02/09 20:37:52;;;;;;;20.73;19.73;;;9.70;78.90;;;;;;4948374;28;20047;-84
2022/02/09 20:40:28;;;;;;;20.05;19.08;;;9.70;78.90;;;;;;4964233;28;20452;-85
2022/02/09 20:42:57;;;;;;;19.63;18.63;;;9.70;78.90;;;;;;4960138;28;20042;-85
2022/02/09 20:45:42;;;;;;;20.73;19.63;;;9.70;78.90;;;;;;4962798;28;20397;-84
2022/02/09 20:48:14;;;;;;;19.92;19.02;;;9.60;78.90;;;;;;4959781;28;20035;-85
2022/02/09 20:50:40;;;;;;;19.88;18.90;;;9.60;79.00;;;;;;4962041;28;20050;-85
2022/02/09 20:53:06;;;;;;;20.65;19.60;;;9.60;79.10;;;;;;4963744;28;20031;-84
2022/02/09 20:55:33;;;;;;;19.90;18.90;;;9.60;79.00;;;;;;4962329;28;20518;-84
2022/02/09 20:57:59;;;;;;;20.42;19.42;;;9.60;79.10;;;;;;4959992;28;20039;-83
2022/02/09 21:08:32;;;;;;;19.90;18.90;;;9.50;79.10;;;;;;4964504;28;20385;-84
2022/02/09 21:11:14;;;;;;;20.13;19.13;;;9.40;79.10;;;;;;4969653;28;20512;-84
2022/02/09 21:14:05;;;;;;;19.10;18.10;;;9.40;79.30;;;;;;4968907;28;20030;-84
2022/02/09 21:16:45;;;;;;;21.15;19.83;;;9.40;79.20;;;;;;4966260;28;20039;-84
2022/02/09 21:19:35;;;;;;;19.70;18.70;;;9.40;79.20;;;;;;4965229;28;20031;-83
2022/02/09 21:54:23;;;;;;;20.23;19.30;;;9.40;79.20;;;;;;4968879;28;20413;-87
2022/02/09 21:56:54;;;;;;;21.73;20.08;;;9.40;79.20;;;;;;4964519;28;20027;-87
2022/02/09 22:28:41;;;;;;;20.80;19.70;;;9.40;79.10;;;;;;4901216;29;20040;-85
2022/02/09 22:55:08;;;;;;;20.05;18.95;;;9.30;79.20;;;;;;4932563;29;20052;-85
2022/02/09 23:00:14;;;;;;;20.40;19.40;;;9.30;79.20;;;;;;4929589;28;20055;-86
2022/02/09 23:02:45;;;;;;;20.02;19.02;;;9.30;79.20;;;;;;4931306;29;20079;-85
2022/02/09 23:10:43;;;;;;;21.33;20.23;;;9.40;79.20;;;;;;4964516;28;20034;-85
2022/02/09 23:13:22;;;;;;;20.02;19.02;;;9.30;79.20;;;;;;4970913;28;20037;-85
2022/02/09 23:19:27;;;;;;;19.77;18.75;;;9.40;79.20;;;;;;4963351;28;20061;-85
2022/02/09 23:24:59;;;;;;;20.58;19.58;;;9.40;79.10;;;;;;4911998;29;20643;-85
2022/02/09 23:57:25;;;;;;;19.95;18.73;;;9.30;79.00;;;;;;4918970;29;20059;-85
